Lancaster, Virginia
Current Conditions -  °F | °C
As of 6:15 AM on Sunday 21 Dec 2014 (Local Time) from KW75 Reporting Station
Overcast Overcast  
Wind Chill: 35°   Ceiling: 7000
Heat Index: 35°   Visibility: 10mi
Dew Point: 28°   Wind: 3mph
Humidity: 75%   Direction: 20°NNE
Pressure: 30.31"   Gusts: NA
Location:  37.77°N, 76.47°W
Report Text: KW75 211115Z AUTO 02003KT 10SM OVC070 02/M02 A3031 RMK AO1 T00171023
Loading
Personal Weather Stations






























Interactive Weather Map New forecast layout! Learn more

10-Day Weather Forecast

Advertisements
Track Severe Weather on mobile